createdAt,value
2023-02-11T00:00:15.027Z,10.38
2023-02-11T00:01:48.307Z,9.57
2023-02-11T00:03:23.155Z,10.73
2023-02-11T00:04:56.618Z,9.80
2023-02-11T00:06:32.153Z,8.75
2023-02-11T00:08:06.063Z,8.82
2023-02-11T00:09:39.419Z,9.40
2023-02-11T00:11:14.940Z,8.90
2023-02-11T00:12:48.128Z,8.52
2023-02-11T00:14:21.291Z,9.05
2023-02-11T00:15:54.057Z,8.95
2023-02-11T00:17:27.419Z,9.43
2023-02-11T00:19:03.652Z,9.05
2023-02-11T00:20:39.306Z,8.27
2023-02-11T00:22:12.552Z,9.32
2023-02-11T00:23:47.151Z,9.68
2023-02-11T00:25:19.370Z,8.52
2023-02-11T00:26:52.557Z,8.27
2023-02-11T00:28:24.813Z,8.18
2023-02-11T00:29:58.046Z,8.25
2023-02-11T00:31:31.328Z,8.30
2023-02-11T00:33:04.426Z,9.27
2023-02-11T00:34:40.233Z,8.55
2023-02-11T00:36:18.578Z,8.93
2023-02-11T00:37:54.450Z,8.93
2023-02-11T00:39:27.788Z,8.85
2023-02-11T00:41:00.029Z,9.43
2023-02-11T00:42:35.469Z,9.13
2023-02-11T00:44:08.668Z,8.85
2023-02-11T00:45:40.909Z,8.95
2023-02-11T00:47:14.285Z,9.80
2023-02-11T00:48:51.640Z,8.43
2023-02-11T00:50:29.030Z,9.13
2023-02-11T00:52:02.377Z,10.23
2023-02-11T00:53:36.935Z,10.02
2023-02-11T00:55:10.470Z,8.65
2023-02-11T00:56:43.757Z,8.27
2023-02-11T00:58:16.943Z,8.07
2023-02-11T00:59:50.534Z,9.90
2023-02-11T01:01:24.984Z,8.43
2023-02-11T01:02:58.413Z,9.05
2023-02-11T01:04:31.709Z,8.00
2023-02-11T01:06:07.474Z,8.50
2023-02-11T01:07:42.051Z,8.95
2023-02-11T01:09:15.406Z,9.20
2023-02-11T01:10:56.559Z,9.80
2023-02-11T01:12:29.797Z,8.82
2023-02-11T01:14:04.613Z,8.43
2023-02-11T01:15:37.851Z,8.75
2023-02-11T01:17:11.154Z,8.80
2023-02-11T01:18:44.620Z,8.18
2023-02-11T01:20:22.851Z,8.98
2023-02-11T01:21:57.740Z,8.98
2023-02-11T01:23:31.263Z,8.98
2023-02-11T01:25:05.082Z,9.60
2023-02-11T01:26:38.333Z,8.35
2023-02-11T01:28:18.653Z,8.38
2023-02-11T01:29:51.877Z,8.95
2023-02-11T01:33:00.178Z,8.73
2023-02-11T01:34:33.328Z,7.72
2023-02-11T01:36:08.900Z,8.10
2023-02-11T01:37:43.494Z,8.93
2023-02-11T01:39:15.702Z,9.60
2023-02-11T01:40:50.906Z,8.93
2023-02-11T01:42:26.779Z,9.63
2023-02-11T01:44:00.097Z,9.52
2023-02-11T01:46:13.551Z,8.85
2023-02-11T01:47:46.688Z,8.63
2023-02-11T01:49:26.201Z,8.95
2023-02-11T01:51:08.005Z,8.63
2023-02-11T01:52:46.211Z,9.05
2023-02-11T01:54:43.517Z,9.63
2023-02-11T01:56:36.432Z,9.07
2023-02-11T01:58:09.653Z,8.32
2023-02-11T01:59:53.209Z,8.27
2023-02-11T02:01:30.223Z,9.73
2023-02-11T02:03:10.802Z,9.50
2023-02-11T02:04:54.042Z,9.77
2023-02-11T02:06:36.005Z,9.00
2023-02-11T02:08:18.692Z,9.32
2023-02-11T02:10:00.414Z,9.18
2023-02-11T02:11:33.955Z,9.88
2023-02-11T02:13:07.387Z,10.02
2023-02-11T02:14:40.504Z,9.35
2023-02-11T02:16:17.421Z,9.63
2023-02-11T02:18:01.474Z,9.65
2023-02-11T02:20:24.350Z,9.70
2023-02-11T02:22:53.901Z,8.80
2023-02-11T02:25:04.710Z,8.88
2023-02-11T02:27:10.006Z,8.75
2023-02-11T02:29:24.453Z,8.95
2023-02-11T02:31:29.449Z,8.55
2023-02-11T02:33:25.375Z,8.85
2023-02-11T02:35:14.324Z,9.27
2023-02-11T02:37:02.007Z,9.35
2023-02-11T02:38:41.702Z,9.10
2023-02-11T02:40:21.679Z,8.50
2023-02-11T02:41:57.148Z,9.95
2023-02-11T02:43:32.223Z,9.52
2023-02-11T02:46:40.520Z,8.00
2023-02-11T02:48:30.523Z,9.02
2023-02-11T02:50:04.416Z,9.65
2023-02-11T02:52:08.322Z,9.23
2023-02-11T02:53:55.849Z,9.32
2023-02-11T02:55:47.739Z,9.20
2023-02-11T02:57:33.299Z,9.73
2023-02-11T02:59:28.265Z,9.27
2023-02-11T03:01:15.145Z,9.35
2023-02-11T03:03:09.753Z,8.93
2023-02-11T03:04:51.754Z,9.75
2023-02-11T03:06:33.704Z,9.32
2023-02-11T03:08:13.209Z,8.80
2023-02-11T03:09:55.774Z,9.80
2023-02-11T03:11:30.236Z,10.65
2023-02-11T03:13:05.838Z,10.30
2023-02-11T03:14:40.734Z,9.68
2023-02-11T03:16:19.864Z,9.52
2023-02-11T03:17:56.733Z,9.77
2023-02-11T03:19:37.506Z,9.43
2023-02-11T03:22:53.275Z,8.68
2023-02-11T03:24:33.641Z,9.23
2023-02-11T03:26:15.683Z,9.77
2023-02-11T03:27:56.157Z,10.07
2023-02-11T03:29:40.079Z,9.93
2023-02-11T03:31:20.435Z,10.30
2023-02-11T03:33:01.405Z,9.77
2023-02-11T03:34:45.089Z,10.00
2023-02-11T03:36:27.689Z,10.68
2023-02-11T03:38:08.479Z,9.75
2023-02-11T03:41:24.163Z,9.07
2023-02-11T03:43:02.228Z,10.02
2023-02-11T03:44:42.039Z,10.15
2023-02-11T03:46:20.537Z,9.93
2023-02-11T03:48:02.784Z,9.60
2023-02-11T03:49:40.394Z,10.98
2023-02-11T03:51:16.807Z,10.55
2023-02-11T03:52:51.602Z,9.63
2023-02-11T03:54:31.258Z,10.93
2023-02-11T03:56:10.011Z,10.02
2023-02-11T03:57:43.353Z,10.20
2023-02-11T03:59:16.519Z,9.95
2023-02-11T04:00:49.910Z,9.90
2023-02-11T04:02:26.915Z,9.95
2023-02-11T04:04:00.228Z,9.95
2023-02-11T04:05:33.855Z,9.25
2023-02-11T04:07:07.051Z,10.25
2023-02-11T04:08:41.750Z,9.45
2023-02-11T04:10:15.166Z,9.93
2023-02-11T04:11:47.429Z,9.60
2023-02-11T04:13:20.709Z,9.35
2023-02-11T04:14:53.937Z,9.82
2023-02-11T04:16:26.363Z,10.85
2023-02-11T04:17:59.533Z,9.98
2023-02-11T04:19:33.173Z,8.88
2023-02-11T04:21:07.019Z,9.05
2023-02-11T04:22:42.346Z,9.68
2023-02-11T04:24:15.947Z,9.13
2023-02-11T04:25:50.797Z,9.35
2023-02-11T04:27:24.663Z,8.80
2023-02-11T04:28:57.816Z,8.60
2023-02-11T04:30:30.009Z,8.75
2023-02-11T04:32:03.259Z,9.45
2023-02-11T04:33:38.065Z,9.02
2023-02-11T04:35:11.200Z,8.50
2023-02-11T04:36:44.475Z,9.15
2023-02-11T04:38:18.130Z,8.43
2023-02-11T04:39:52.629Z,9.77
2023-02-11T04:41:25.803Z,8.90
2023-02-11T04:42:58.928Z,9.07
2023-02-11T04:44:32.868Z,8.60
2023-02-11T04:46:06.617Z,9.25
2023-02-11T04:47:39.890Z,9.43
2023-02-11T04:49:15.146Z,8.60
2023-02-11T04:50:59.442Z,8.82
2023-02-11T04:52:45.828Z,8.88
2023-02-11T04:54:21.934Z,8.73
2023-02-11T04:55:56.603Z,9.35
2023-02-11T04:59:02.118Z,7.30
2023-02-11T05:00:35.408Z,8.50
2023-02-11T05:02:08.673Z,8.73
2023-02-11T05:03:42.678Z,8.90
2023-02-11T05:05:15.874Z,8.63
2023-02-11T05:06:49.028Z,8.50
2023-02-11T05:08:22.424Z,8.32
2023-02-11T05:09:54.831Z,9.90
2023-02-11T05:11:29.318Z,8.82
2023-02-11T05:13:02.552Z,9.27
2023-02-11T05:14:35.851Z,8.32
2023-02-11T05:16:09.078Z,9.00
2023-02-11T05:17:42.574Z,8.63
2023-02-11T05:19:15.734Z,8.90
2023-02-11T05:20:48.009Z,8.57
2023-02-11T05:22:23.798Z,8.93
2023-02-11T05:23:58.262Z,8.60
2023-02-11T05:25:31.450Z,8.50
2023-02-11T05:27:06.174Z,8.80
2023-02-11T05:28:38.894Z,9.50
2023-02-11T05:30:13.072Z,9.85
2023-02-11T05:31:45.334Z,7.82
2023-02-11T05:33:18.590Z,8.35
2023-02-11T05:34:54.288Z,8.50
2023-02-11T05:36:27.610Z,8.60
2023-02-11T05:38:00.812Z,8.38
2023-02-11T05:39:34.202Z,8.60
2023-02-11T05:41:08.184Z,9.13
2023-02-11T05:42:43.044Z,8.38
2023-02-11T05:44:21.613Z,7.60
2023-02-11T05:45:55.633Z,9.45
2023-02-11T05:47:28.890Z,8.05
2023-02-11T05:49:02.121Z,8.18
2023-02-11T05:50:35.341Z,8.20
2023-02-11T05:52:08.697Z,7.72
2023-02-11T05:53:41.867Z,8.18
2023-02-11T05:55:15.390Z,8.00
2023-02-11T05:56:47.655Z,8.73
2023-02-11T05:58:22.229Z,7.88
2023-02-11T05:59:55.374Z,8.55
2023-02-11T06:01:28.831Z,8.23
2023-02-11T06:03:01.584Z,8.48
2023-02-11T06:04:34.773Z,8.20
2023-02-11T06:06:13.444Z,8.30
2023-02-11T06:07:46.921Z,8.00
2023-02-11T06:09:20.363Z,8.05
2023-02-11T06:10:53.556Z,8.30
2023-02-11T06:12:27.043Z,9.00
2023-02-11T06:14:02.760Z,8.13
2023-02-11T06:15:36.242Z,7.55
2023-02-11T06:17:09.538Z,8.25
2023-02-11T06:18:42.701Z,8.27
2023-02-11T06:20:16.072Z,8.20
2023-02-11T06:21:49.273Z,7.95
2023-02-11T06:23:23.133Z,9.18
2023-02-11T06:25:01.730Z,8.40
2023-02-11T06:26:36.847Z,7.78
2023-02-11T06:28:10.748Z,8.70
2023-02-11T06:29:45.740Z,7.93
2023-02-11T06:31:19.066Z,8.32
2023-02-11T06:32:52.313Z,7.80
2023-02-11T06:34:25.694Z,8.00
2023-02-11T06:35:57.861Z,8.57
2023-02-11T06:37:31.052Z,7.72
2023-02-11T06:39:04.479Z,8.07
2023-02-11T06:40:37.634Z,8.57
2023-02-11T06:42:11.339Z,7.75
2023-02-11T06:43:44.880Z,7.43
2023-02-11T06:45:20.524Z,7.38
2023-02-11T06:46:53.931Z,7.80
2023-02-11T06:48:27.166Z,8.30
2023-02-11T06:50:00.319Z,7.35
2023-02-11T06:51:33.548Z,7.07
2023-02-11T06:53:06.761Z,7.70
2023-02-11T06:54:40.698Z,8.20
2023-02-11T06:56:19.903Z,7.75
2023-02-11T06:57:53.309Z,7.53
2023-02-11T06:59:26.521Z,7.90
2023-02-11T07:01:01.420Z,7.25
2023-02-11T07:02:34.871Z,6.60
2023-02-11T07:04:08.263Z,7.10
2023-02-11T07:05:44.100Z,7.20
2023-02-11T07:07:17.244Z,7.00
2023-02-11T07:08:50.783Z,7.35
2023-02-11T07:10:23.880Z,7.60
2023-02-11T07:11:57.145Z,6.97
2023-02-11T07:13:30.536Z,7.30
2023-02-11T07:15:04.207Z,6.97
2023-02-11T07:16:39.995Z,7.43
2023-02-11T07:18:14.620Z,7.45
2023-02-11T07:19:47.880Z,7.22
2023-02-11T07:21:24.180Z,6.97
2023-02-11T07:22:57.728Z,6.50
2023-02-11T07:24:30.937Z,6.53
2023-02-11T07:26:05.453Z,6.78
2023-02-11T07:27:38.631Z,6.95
2023-02-11T07:29:11.837Z,7.13
2023-02-11T07:30:45.012Z,6.43
2023-02-11T07:32:19.837Z,6.72
2023-02-11T07:33:55.105Z,6.43
2023-02-11T07:35:28.371Z,6.10
2023-02-11T07:37:01.615Z,6.93
2023-02-11T07:38:36.595Z,6.07
2023-02-11T07:40:11.091Z,6.63
2023-02-11T07:41:47.652Z,6.82
2023-02-11T07:43:20.955Z,6.20
2023-02-11T07:44:54.273Z,7.03
2023-02-11T07:46:28.507Z,7.03
2023-02-11T07:48:03.152Z,6.63
2023-02-11T07:49:36.423Z,6.65
2023-02-11T07:51:13.209Z,5.95
2023-02-11T07:52:46.351Z,6.80
2023-02-11T07:54:19.557Z,7.07
2023-02-11T07:55:52.968Z,6.75
2023-02-11T07:57:26.284Z,7.00
2023-02-11T07:59:04.134Z,7.18
2023-02-11T08:00:37.396Z,7.65
2023-02-11T08:02:10.856Z,7.68
2023-02-11T08:03:45.875Z,7.18
2023-02-11T08:06:55.883Z,7.22
2023-02-11T08:08:31.104Z,7.20
2023-02-11T08:10:04.869Z,7.55
2023-02-11T08:11:38.407Z,7.22
2023-02-11T08:13:11.688Z,8.18
2023-02-11T08:14:44.851Z,7.80
2023-02-11T08:16:23.031Z,8.50
2023-02-11T08:17:56.200Z,8.43
2023-02-11T08:19:31.617Z,7.95
2023-02-11T08:21:06.932Z,8.40
2023-02-11T08:22:40.175Z,8.02
2023-02-11T08:24:13.750Z,8.88
2023-02-11T08:25:46.942Z,8.90
2023-02-11T08:27:20.349Z,9.07
2023-02-11T08:28:56.256Z,9.10
2023-02-11T08:30:29.471Z,8.75
2023-02-11T08:32:03.485Z,9.13
2023-02-11T08:33:37.670Z,9.50
2023-02-11T08:35:12.920Z,9.50
2023-02-11T08:36:48.458Z,9.80
2023-02-11T08:38:21.760Z,10.00
2023-02-11T08:39:54.931Z,10.32
2023-02-11T08:41:28.271Z,10.38
2023-02-11T08:43:01.408Z,10.25
2023-02-11T08:44:34.573Z,9.23
2023-02-11T08:46:08.449Z,9.88
2023-02-11T08:47:41.603Z,11.30
2023-02-11T08:49:15.779Z,10.65
2023-02-11T08:50:50.688Z,10.18
2023-02-11T08:52:23.993Z,9.85
2023-02-11T08:53:58.437Z,10.30
2023-02-11T08:55:32.102Z,10.27
2023-02-11T08:57:06.125Z,10.35
2023-02-11T08:58:39.728Z,10.82
2023-02-11T09:00:14.878Z,11.13
2023-02-11T09:01:48.759Z,10.73
2023-02-11T09:03:22.388Z,10.68
2023-02-11T09:04:55.559Z,9.63
2023-02-11T09:06:30.969Z,10.13
2023-02-11T09:08:04.258Z,9.52
2023-02-11T09:09:37.436Z,10.45
2023-02-11T09:11:11.334Z,11.50
2023-02-11T09:12:44.609Z,10.20
2023-02-11T09:14:21.196Z,9.77
2023-02-11T09:15:54.595Z,10.52
2023-02-11T09:17:28.081Z,10.82
2023-02-11T09:19:05.035Z,10.27
2023-02-11T09:20:38.259Z,11.07
2023-02-11T09:22:12.798Z,10.65
2023-02-11T09:23:47.710Z,11.73
2023-02-11T09:25:20.904Z,10.40
2023-02-11T09:26:54.326Z,10.73
2023-02-11T09:28:27.510Z,10.60
2023-02-11T09:30:00.748Z,10.70
2023-02-11T09:31:35.377Z,11.00
2023-02-11T09:33:08.731Z,10.02
2023-02-11T09:34:42.210Z,11.07
2023-02-11T09:36:18.840Z,12.40
2023-02-11T09:37:53.384Z,11.05
2023-02-11T09:39:29.219Z,10.73
2023-02-11T09:41:07.544Z,11.05
2023-02-11T09:42:48.997Z,10.70
2023-02-11T09:44:26.113Z,11.32
2023-02-11T09:46:00.248Z,11.38
2023-02-11T09:47:39.227Z,10.50
2023-02-11T09:49:24.394Z,11.13
2023-02-11T09:51:01.689Z,11.07
2023-02-11T09:52:44.271Z,10.82
2023-02-11T09:54:28.515Z,10.93
2023-02-11T09:56:12.177Z,11.18
2023-02-11T09:57:45.906Z,11.27
2023-02-11T09:59:20.139Z,11.27
2023-02-11T10:01:05.511Z,10.85
2023-02-11T10:03:02.079Z,11.27
2023-02-11T10:05:04.741Z,11.07
2023-02-11T10:06:42.830Z,10.77
2023-02-11T10:08:27.797Z,11.55
2023-02-11T10:10:18.093Z,10.55
2023-02-11T10:12:02.650Z,11.68
2023-02-11T10:13:55.550Z,12.10
2023-02-11T10:15:41.007Z,10.85
2023-02-11T10:17:26.187Z,10.93
2023-02-11T10:19:20.463Z,11.30
2023-02-11T10:21:11.457Z,10.25
2023-02-11T10:22:50.269Z,11.30
2023-02-11T10:24:24.364Z,11.30
2023-02-11T10:26:00.492Z,11.35
2023-02-11T10:27:36.789Z,10.50
2023-02-11T10:29:30.045Z,11.63
2023-02-11T10:31:09.469Z,11.70
2023-02-11T10:32:48.868Z,10.52
2023-02-11T10:34:22.196Z,11.02
2023-02-11T10:35:55.515Z,11.25
2023-02-11T10:37:28.850Z,11.57
2023-02-11T10:39:03.861Z,12.13
2023-02-11T10:42:15.573Z,10.13
2023-02-11T10:43:49.396Z,11.73
2023-02-11T10:45:29.168Z,10.68
2023-02-11T10:47:10.344Z,15.68
2023-02-11T10:48:49.393Z,11.32
2023-02-11T10:50:29.522Z,14.38
2023-02-11T10:52:23.642Z,21.27
2023-02-11T10:54:19.399Z,13.57
2023-02-11T10:55:57.494Z,13.57
2023-02-11T10:57:37.150Z,12.40
2023-02-11T10:59:21.983Z,16.77
2023-02-11T11:00:59.574Z,11.65
2023-02-11T11:02:38.780Z,11.18
2023-02-11T11:04:40.487Z,12.68
2023-02-11T11:06:14.335Z,11.38
2023-02-11T11:07:55.624Z,11.75
2023-02-11T11:09:31.347Z,11.05
2023-02-11T11:11:07.801Z,10.65
2023-02-11T11:12:49.901Z,10.80
2023-02-11T11:14:29.172Z,10.57
2023-02-11T11:16:23.855Z,12.40
2023-02-11T11:18:22.378Z,10.88
2023-02-11T11:20:28.180Z,10.80
2023-02-11T11:22:01.847Z,10.95
2023-02-11T11:23:38.228Z,10.63
2023-02-11T11:25:25.548Z,11.48
2023-02-11T11:27:02.613Z,11.23
2023-02-11T11:28:43.522Z,10.65
2023-02-11T11:31:56.807Z,13.68
2023-02-11T11:33:34.820Z,16.98
2023-02-11T11:35:24.536Z,12.00
2023-02-11T11:37:00.856Z,12.25
2023-02-11T11:38:37.697Z,12.20
2023-02-11T11:40:25.234Z,11.13
2023-02-11T11:42:00.757Z,11.57
2023-02-11T11:43:34.203Z,11.32
2023-02-11T11:45:27.442Z,11.23
2023-02-11T11:47:25.086Z,11.48
2023-02-11T11:49:19.463Z,11.60
2023-02-11T11:50:58.146Z,10.23
2023-02-11T11:52:43.769Z,11.68
2023-02-11T11:54:21.444Z,12.05
2023-02-11T11:56:03.503Z,11.85
2023-02-11T11:57:40.548Z,12.85
2023-02-11T11:59:16.945Z,12.77
2023-02-11T12:01:03.805Z,11.75
2023-02-11T12:03:01.732Z,13.43
2023-02-11T12:05:00.401Z,11.60
2023-02-11T12:06:51.710Z,12.13
2023-02-11T12:08:40.009Z,11.07
2023-02-11T12:10:59.269Z,10.75
2023-02-11T12:12:47.342Z,11.38
2023-02-11T12:14:35.744Z,12.02
2023-02-11T12:16:24.888Z,11.68
2023-02-11T12:18:44.335Z,11.70
2023-02-11T12:20:31.374Z,11.50
2023-02-11T12:22:13.782Z,12.63
2023-02-11T12:24:06.136Z,11.82
2023-02-11T12:27:41.580Z,10.93
2023-02-11T12:29:29.754Z,12.45
2023-02-11T12:31:24.772Z,11.63
2023-02-11T12:33:11.602Z,12.75
2023-02-11T12:35:28.288Z,11.35
2023-02-11T12:37:15.214Z,11.77
2023-02-11T12:39:09.413Z,12.23
2023-02-11T12:40:50.070Z,11.88
2023-02-11T12:43:13.799Z,11.68
2023-02-11T12:45:07.990Z,11.52
2023-02-11T12:46:48.996Z,12.50
2023-02-11T12:49:00.617Z,12.50
2023-02-11T12:50:48.420Z,12.63
2023-02-11T12:52:41.211Z,12.38
2023-02-11T12:54:25.502Z,11.98
2023-02-11T12:56:07.721Z,13.02
2023-02-11T12:57:45.324Z,12.30
2023-02-11T12:59:34.628Z,13.15
2023-02-11T13:01:17.729Z,12.70
2023-02-11T13:03:01.588Z,13.00
2023-02-11T13:04:41.386Z,12.77
2023-02-11T13:06:20.435Z,12.52
2023-02-11T13:08:03.996Z,12.65
2023-02-11T13:09:45.164Z,13.05
2023-02-11T13:11:23.833Z,12.98
2023-02-11T13:13:16.874Z,13.07
2023-02-11T13:14:55.440Z,12.25
2023-02-11T13:16:40.509Z,13.55
2023-02-11T13:18:31.457Z,13.10
2023-02-11T13:20:19.648Z,13.00
2023-02-11T13:22:11.248Z,13.15
2023-02-11T13:23:56.653Z,12.43
2023-02-11T13:25:37.668Z,12.40
2023-02-11T13:27:27.505Z,13.82
2023-02-11T13:29:21.884Z,13.10
2023-02-11T13:31:02.715Z,13.30
2023-02-11T13:33:20.727Z,12.55
2023-02-11T13:34:59.850Z,13.10
2023-02-11T13:36:35.031Z,14.13
2023-02-11T13:38:21.414Z,13.65
2023-02-11T13:40:03.537Z,13.63
2023-02-11T13:41:42.372Z,13.27
2023-02-11T13:43:25.419Z,14.25
2023-02-11T13:44:59.375Z,12.90
2023-02-11T13:46:55.570Z,13.43
2023-02-11T13:48:34.742Z,12.88
2023-02-11T13:50:21.818Z,13.38
2023-02-11T13:51:56.412Z,13.50
2023-02-11T13:53:30.812Z,14.65
2023-02-11T13:55:22.426Z,14.50
2023-02-11T13:57:32.445Z,13.98
2023-02-11T13:59:30.512Z,13.85
2023-02-11T14:01:04.305Z,14.02
2023-02-11T14:02:56.353Z,13.10
2023-02-11T14:04:49.168Z,14.63
2023-02-11T14:06:46.694Z,13.82
2023-02-11T14:08:43.128Z,13.13
2023-02-11T14:10:53.286Z,15.00
2023-02-11T14:12:36.986Z,13.70
2023-02-11T14:14:31.755Z,15.10
2023-02-11T14:16:09.743Z,13.95
2023-02-11T14:17:47.989Z,13.95
2023-02-11T14:19:33.997Z,14.68
2023-02-11T14:21:15.255Z,15.13
2023-02-11T14:22:52.604Z,15.70
2023-02-11T14:24:51.846Z,15.02
2023-02-11T14:26:40.797Z,14.38
2023-02-11T14:28:25.179Z,14.05
2023-02-11T14:30:30.772Z,14.73
2023-02-11T14:32:19.569Z,14.50
2023-02-11T14:34:08.706Z,14.77
2023-02-11T14:36:02.730Z,13.75
2023-02-11T14:37:50.624Z,14.10
2023-02-11T14:39:42.330Z,15.52
2023-02-11T14:41:23.705Z,14.23
2023-02-11T14:43:02.806Z,14.15
2023-02-11T14:44:36.845Z,15.63
2023-02-11T14:46:11.078Z,15.48
2023-02-11T14:47:52.987Z,15.32
2023-02-11T14:49:37.446Z,15.75
2023-02-11T14:51:20.268Z,15.57
2023-02-11T14:52:54.661Z,16.27
2023-02-11T14:54:30.093Z,15.25
2023-02-11T14:56:03.295Z,15.40
2023-02-11T14:57:37.823Z,15.68
2023-02-11T14:59:19.254Z,16.23
2023-02-11T15:01:00.144Z,15.88
2023-02-11T15:02:40.174Z,15.85
2023-02-11T15:04:25.861Z,15.13
2023-02-11T15:06:02.874Z,15.15
2023-02-11T15:07:37.548Z,15.82
2023-02-11T15:09:19.608Z,15.68
2023-02-11T15:10:56.681Z,15.52
2023-02-11T15:12:30.076Z,14.45
2023-02-11T15:14:12.279Z,15.98
2023-02-11T15:15:46.557Z,15.60
2023-02-11T15:17:25.642Z,15.95
2023-02-11T15:19:07.791Z,14.98
2023-02-11T15:20:42.798Z,15.60
2023-02-11T15:22:23.301Z,16.02
2023-02-11T15:24:01.900Z,15.65
2023-02-11T15:25:35.975Z,15.23
2023-02-11T15:27:15.995Z,17.38
2023-02-11T15:28:52.032Z,15.57
2023-02-11T15:30:30.472Z,15.48
2023-02-11T15:32:17.135Z,16.90
2023-02-11T15:33:51.422Z,15.85
2023-02-11T15:35:25.540Z,15.93
2023-02-11T15:36:58.920Z,16.08
2023-02-11T15:38:32.980Z,15.93
2023-02-11T15:40:19.451Z,16.13
2023-02-11T15:43:26.262Z,15.30
2023-02-11T15:45:28.914Z,16.92
2023-02-11T15:47:02.287Z,16.02
2023-02-11T15:48:43.436Z,16.13
2023-02-11T15:50:25.579Z,16.65
2023-02-11T15:51:59.363Z,16.05
2023-02-11T15:53:40.586Z,16.83
2023-02-11T15:55:17.393Z,16.60
2023-02-11T15:56:55.296Z,16.38
2023-02-11T15:58:29.932Z,15.93
2023-02-11T16:00:07.050Z,16.65
2023-02-11T16:02:08.007Z,15.55
2023-02-11T16:03:44.324Z,17.73
2023-02-11T16:05:30.674Z,14.98
2023-02-11T16:08:40.513Z,15.77
2023-02-11T16:10:24.684Z,14.60
2023-02-11T16:12:07.415Z,14.80
2023-02-11T16:13:48.379Z,14.73
2023-02-11T16:15:48.901Z,14.35
2023-02-11T16:17:29.516Z,14.18
2023-02-11T16:19:06.630Z,15.23
2023-02-11T16:20:40.124Z,14.52
2023-02-11T16:22:19.942Z,17.13
2023-02-11T16:23:56.704Z,14.68
2023-02-11T16:25:37.151Z,14.50
2023-02-11T16:27:23.947Z,14.57
2023-02-11T16:29:12.197Z,14.63
2023-02-11T16:30:45.663Z,15.85
2023-02-11T16:32:22.486Z,15.18
2023-02-11T16:33:57.085Z,14.90
2023-02-11T16:35:30.465Z,14.07
2023-02-11T16:37:06.376Z,14.25
2023-02-11T16:38:39.505Z,16.20
2023-02-11T16:40:14.299Z,14.45
2023-02-11T16:41:47.452Z,14.57
2023-02-11T16:43:21.332Z,15.88
2023-02-11T16:44:54.786Z,14.48
2023-02-11T16:46:28.279Z,14.63
2023-02-11T16:48:02.936Z,14.30
2023-02-11T16:49:41.694Z,14.93
2023-02-11T16:51:15.078Z,14.38
2023-02-11T16:52:49.120Z,13.60
2023-02-11T16:54:22.397Z,13.90
2023-02-11T16:55:55.951Z,14.75
2023-02-11T16:57:30.391Z,13.35
2023-02-11T16:59:03.793Z,14.50
2023-02-11T17:00:37.970Z,14.38
2023-02-11T17:02:20.763Z,13.65
2023-02-11T17:03:55.503Z,12.95
2023-02-11T17:05:29.988Z,13.07
2023-02-11T17:07:03.316Z,13.63
2023-02-11T17:08:37.091Z,12.25
2023-02-11T17:10:17.332Z,14.20
2023-02-11T17:11:51.504Z,13.23
2023-02-11T17:13:24.661Z,12.77
2023-02-11T17:14:57.965Z,13.52
2023-02-11T17:16:32.490Z,13.75
2023-02-11T17:18:06.201Z,13.02
2023-02-11T17:19:40.785Z,14.93
2023-02-11T17:21:15.833Z,12.68
2023-02-11T17:22:49.109Z,12.18
2023-02-11T17:24:23.559Z,12.10
2023-02-11T17:25:58.114Z,12.15
2023-02-11T17:27:31.420Z,12.70
2023-02-11T17:29:06.864Z,12.68
2023-02-11T17:30:43.421Z,11.73
2023-02-11T17:32:16.802Z,11.38
2023-02-11T17:33:50.158Z,12.43
2023-02-11T17:35:23.442Z,12.85
2023-02-11T17:36:59.560Z,13.02
2023-02-11T17:38:32.891Z,12.50
2023-02-11T17:40:08.237Z,12.25
2023-02-11T17:41:42.521Z,13.07
2023-02-11T17:43:16.678Z,12.20
2023-02-11T17:44:49.855Z,11.65
2023-02-11T17:46:23.198Z,12.23
2023-02-11T17:47:56.619Z,12.10
2023-02-11T17:49:30.286Z,11.90
2023-02-11T17:51:03.692Z,12.63
2023-02-11T17:52:38.520Z,11.88
2023-02-11T17:55:46.705Z,11.20
2023-02-11T17:57:19.939Z,12.13
2023-02-11T17:58:54.029Z,11.32
2023-02-11T18:00:28.180Z,12.10
2023-02-11T18:02:01.346Z,12.23
2023-02-11T18:03:34.739Z,12.98
2023-02-11T18:05:10.065Z,11.63
2023-02-11T18:06:43.883Z,12.38
2023-02-11T18:08:18.515Z,12.32
2023-02-11T18:09:54.016Z,11.50
2023-02-11T18:11:27.849Z,12.25
2023-02-11T18:13:01.582Z,11.75
2023-02-11T18:14:41.399Z,11.43
2023-02-11T18:16:15.668Z,12.02
2023-02-11T18:17:49.932Z,11.48
2023-02-11T18:19:23.950Z,13.27
2023-02-11T18:20:59.128Z,11.93
2023-02-11T18:22:36.475Z,13.05
2023-02-11T18:24:11.482Z,13.23
2023-02-11T18:27:18.057Z,12.07
2023-02-11T18:28:52.493Z,12.88
2023-02-11T18:30:25.905Z,13.02
2023-02-11T18:31:59.706Z,13.95
2023-02-11T18:33:33.349Z,14.02
2023-02-11T18:35:08.636Z,14.45
2023-02-11T18:36:42.129Z,14.82
2023-02-11T18:38:15.295Z,16.70
2023-02-11T18:39:50.035Z,16.33
2023-02-11T18:41:24.110Z,15.98
2023-02-11T18:42:57.380Z,14.02
2023-02-11T18:44:30.737Z,13.85
2023-02-11T18:46:11.174Z,15.60
2023-02-11T18:47:44.858Z,14.30
2023-02-11T18:49:18.570Z,13.40
2023-02-11T18:50:51.974Z,13.43
2023-02-11T18:52:25.221Z,15.18
2023-02-11T18:53:58.425Z,13.50
2023-02-11T18:55:33.185Z,13.80
2023-02-11T18:57:06.390Z,13.32
2023-02-11T18:58:40.040Z,15.25
2023-02-11T19:00:15.244Z,14.85
2023-02-11T19:01:48.516Z,13.80
2023-02-11T19:03:22.220Z,14.07
2023-02-11T19:04:55.604Z,14.65
2023-02-11T19:06:32.839Z,15.23
2023-02-11T19:08:06.311Z,14.32
2023-02-11T19:09:39.638Z,13.75
2023-02-11T19:11:18.670Z,12.95
2023-02-11T19:12:56.143Z,12.85
2023-02-11T19:14:33.384Z,14.00
2023-02-11T19:16:11.338Z,13.10
2023-02-11T19:17:44.926Z,13.45
2023-02-11T19:19:19.079Z,12.70
2023-02-11T19:20:52.273Z,12.90
2023-02-11T19:22:25.607Z,12.88
2023-02-11T19:24:00.770Z,13.10
2023-02-11T19:25:34.595Z,12.60
2023-02-11T19:27:09.135Z,13.32
2023-02-11T19:28:42.421Z,13.63
2023-02-11T19:30:16.021Z,13.13
2023-02-11T19:31:49.779Z,13.10
2023-02-11T19:33:23.404Z,13.88
2023-02-11T19:34:56.689Z,14.18
2023-02-11T19:36:30.670Z,13.85
2023-02-11T19:38:04.682Z,14.98
2023-02-11T19:39:37.896Z,14.63
2023-02-11T19:41:12.008Z,15.13
2023-02-11T19:42:46.504Z,14.00
2023-02-11T19:44:19.975Z,15.23
2023-02-11T19:45:56.150Z,13.88
2023-02-11T19:47:29.363Z,15.43
2023-02-11T19:49:03.458Z,14.98
2023-02-11T19:50:36.565Z,14.75
2023-02-11T19:52:09.824Z,13.05
2023-02-11T19:53:44.274Z,14.90
2023-02-11T19:55:17.859Z,13.93
2023-02-11T19:56:51.178Z,14.73
2023-02-11T19:58:25.775Z,15.85
2023-02-11T19:59:59.664Z,15.95
2023-02-11T20:01:33.074Z,15.88
2023-02-11T20:03:08.001Z,15.15
2023-02-11T20:04:41.316Z,14.30
2023-02-11T20:06:18.391Z,14.60
2023-02-11T20:07:51.705Z,14.32
2023-02-11T20:09:26.463Z,16.50
2023-02-11T20:11:07.284Z,14.02
2023-02-11T20:12:40.482Z,13.73
2023-02-11T20:14:15.760Z,14.13
2023-02-11T20:15:48.985Z,16.27
2023-02-11T20:17:22.398Z,15.02
2023-02-11T20:18:56.421Z,15.77
2023-02-11T20:20:29.651Z,16.83
2023-02-11T20:22:03.025Z,16.17
2023-02-11T20:23:38.183Z,17.95
2023-02-11T20:25:11.800Z,15.35
2023-02-11T20:26:46.810Z,16.60
2023-02-11T20:28:20.093Z,16.63
2023-02-11T20:29:54.993Z,16.38
2023-02-11T20:31:28.747Z,15.25
2023-02-11T20:33:02.036Z,17.17
2023-02-11T20:34:35.632Z,18.58
2023-02-11T20:36:13.598Z,16.88
2023-02-11T20:37:46.885Z,17.75
2023-02-11T20:39:22.765Z,18.75
2023-02-11T20:42:30.380Z,16.08
2023-02-11T20:44:06.313Z,16.63
2023-02-11T20:45:40.902Z,18.52
2023-02-11T20:47:14.204Z,17.40
2023-02-11T20:48:47.849Z,17.67
2023-02-11T20:50:21.164Z,18.13
2023-02-11T20:51:54.643Z,18.88
2023-02-11T20:53:27.907Z,19.13
2023-02-11T20:55:01.569Z,20.58
2023-02-11T20:56:37.870Z,20.75
2023-02-11T20:58:11.137Z,19.27
2023-02-11T20:59:44.649Z,19.70
2023-02-11T21:01:22.641Z,19.02
2023-02-11T21:02:56.139Z,20.48
2023-02-11T21:04:32.544Z,19.40
2023-02-11T21:06:06.401Z,19.35
2023-02-11T21:07:39.711Z,18.92
2023-02-11T21:09:16.568Z,19.52
2023-02-11T21:10:50.863Z,19.95
2023-02-11T21:12:24.084Z,19.52
2023-02-11T21:13:56.694Z,20.30
2023-02-11T21:15:30.023Z,17.90
2023-02-11T21:17:04.675Z,18.95
2023-02-11T21:18:37.944Z,18.58
2023-02-11T21:20:11.989Z,20.08
2023-02-11T21:21:45.790Z,17.77
2023-02-11T21:23:19.078Z,18.20
2023-02-11T21:24:52.760Z,17.52
2023-02-11T21:26:26.631Z,17.67
2023-02-11T21:27:59.786Z,17.90
2023-02-11T21:29:36.702Z,16.90
2023-02-11T21:32:55.048Z,15.95
2023-02-11T21:34:28.295Z,17.67
2023-02-11T21:36:07.657Z,18.38
2023-02-11T21:37:40.940Z,16.63
2023-02-11T21:39:14.732Z,17.65
2023-02-11T21:40:48.058Z,18.10
2023-02-11T21:42:21.209Z,17.02
2023-02-11T21:43:53.699Z,18.63